createdAt,value
2023-03-22T00:02:05.811Z,100.00
2023-03-22T00:04:32.657Z,100.00
2023-03-22T00:06:59.359Z,100.00
2023-03-22T00:09:25.978Z,100.00
2023-03-22T00:11:52.577Z,100.00
2023-03-22T00:14:19.540Z,100.00
2023-03-22T00:16:46.405Z,100.00
2023-03-22T00:19:13.002Z,100.00
2023-03-22T00:21:39.514Z,100.00
2023-03-22T00:24:06.544Z,100.00
2023-03-22T00:26:34.616Z,100.00
2023-03-22T00:29:01.172Z,100.00
2023-03-22T00:31:28.910Z,100.00
2023-03-22T00:33:58.969Z,100.00
2023-03-22T00:36:25.751Z,100.00
2023-03-22T00:38:52.291Z,100.00
2023-03-22T00:41:22.324Z,100.00
2023-03-22T00:43:49.949Z,100.00
2023-03-22T00:46:19.415Z,100.00
2023-03-22T00:48:46.044Z,100.00
2023-03-22T00:51:13.882Z,100.00
2023-03-22T00:53:43.210Z,100.00
2023-03-22T00:56:13.854Z,100.00
2023-03-22T00:58:40.868Z,100.00
2023-03-22T01:01:07.470Z,100.00
2023-03-22T01:03:38.721Z,100.00
2023-03-22T01:06:05.677Z,100.00
2023-03-22T01:08:32.944Z,100.00
2023-03-22T01:11:01.151Z,100.00
2023-03-22T01:13:28.053Z,100.00
2023-03-22T01:15:54.580Z,100.00
2023-03-22T01:18:22.303Z,100.00
2023-03-22T01:20:48.767Z,100.00
2023-03-22T01:23:15.420Z,100.00
2023-03-22T01:25:41.935Z,100.00
2023-03-22T01:28:08.949Z,100.00
2023-03-22T01:30:35.580Z,100.00
2023-03-22T01:33:02.288Z,100.00
2023-03-22T01:35:28.933Z,100.00
2023-03-22T01:37:55.556Z,100.00
2023-03-22T01:40:22.103Z,100.00
2023-03-22T01:42:48.672Z,100.00
2023-03-22T01:45:15.378Z,100.00
2023-03-22T01:47:44.100Z,100.00
2023-03-22T01:50:10.898Z,100.00
2023-03-22T01:52:38.312Z,100.00
2023-03-22T01:55:06.545Z,100.00
2023-03-22T01:57:37.519Z,100.00
2023-03-22T02:00:12.182Z,100.00
2023-03-22T02:02:38.899Z,100.00
2023-03-22T02:05:05.770Z,100.00
2023-03-22T02:07:35.594Z,100.00
2023-03-22T02:10:02.061Z,100.00
2023-03-22T02:12:57.815Z,100.00
2023-03-22T02:15:55.880Z,100.00
2023-03-22T02:18:48.880Z,100.00
2023-03-22T02:21:49.049Z,100.00
2023-03-22T02:24:34.784Z,100.00
2023-03-22T02:27:10.525Z,100.00
2023-03-22T02:29:52.560Z,100.00
2023-03-22T02:32:27.958Z,100.00
2023-03-22T02:35:09.761Z,100.00
2023-03-22T02:38:17.470Z,100.00
2023-03-22T02:40:58.869Z,100.00
2023-03-22T02:43:41.592Z,100.00
2023-03-22T02:46:14.453Z,100.00
2023-03-22T02:49:16.300Z,100.00
2023-03-22T02:51:49.005Z,100.00
2023-03-22T02:54:26.255Z,100.00
2023-03-22T02:57:01.288Z,100.00
2023-03-22T02:59:32.000Z,100.00
2023-03-22T03:02:03.741Z,100.00
2023-03-22T03:04:37.840Z,100.00
2023-03-22T03:07:09.352Z,100.00
2023-03-22T03:09:39.189Z,100.00
2023-03-22T03:12:13.617Z,100.00
2023-03-22T03:14:40.243Z,100.00
2023-03-22T03:17:29.676Z,100.00
2023-03-22T03:20:08.570Z,100.00
2023-03-22T03:22:47.203Z,100.00
2023-03-22T03:25:21.020Z,100.00
2023-03-22T03:27:59.836Z,100.00
2023-03-22T03:30:35.445Z,100.00
2023-03-22T03:33:09.360Z,100.00
2023-03-22T03:35:44.016Z,100.00
2023-03-22T03:38:17.447Z,100.00
2023-03-22T03:40:48.580Z,100.00
2023-03-22T03:43:16.384Z,100.00
2023-03-22T03:45:43.016Z,100.00
2023-03-22T03:48:17.863Z,100.00
2023-03-22T03:50:44.937Z,100.00
2023-03-22T03:53:11.406Z,100.00
2023-03-22T03:55:37.989Z,100.00
2023-03-22T03:58:04.491Z,100.00
2023-03-22T04:00:31.161Z,100.00
2023-03-22T04:02:57.648Z,100.00
2023-03-22T04:05:24.132Z,100.00
2023-03-22T04:07:50.663Z,100.00
2023-03-22T04:10:17.316Z,100.00
2023-03-22T04:12:43.946Z,100.00
2023-03-22T04:15:12.255Z,100.00
2023-03-22T04:17:39.582Z,100.00
2023-03-22T04:20:09.552Z,100.00
2023-03-22T04:22:38.385Z,100.00
2023-03-22T04:25:11.657Z,100.00
2023-03-22T04:27:42.446Z,100.00
2023-03-22T04:30:11.239Z,100.00
2023-03-22T04:32:38.868Z,100.00
2023-03-22T04:35:05.869Z,100.00
2023-03-22T04:37:32.399Z,100.00
2023-03-22T04:39:59.344Z,100.00
2023-03-22T04:42:29.712Z,100.00
2023-03-22T04:44:56.160Z,100.00
2023-03-22T04:47:26.255Z,100.00
2023-03-22T04:49:52.736Z,100.00
2023-03-22T04:52:19.246Z,100.00
2023-03-22T04:54:45.741Z,100.00
2023-03-22T04:57:12.289Z,100.00
2023-03-22T04:59:38.800Z,100.00
2023-03-22T05:02:05.542Z,100.00
2023-03-22T05:04:32.280Z,100.00
2023-03-22T05:06:58.793Z,100.00
2023-03-22T05:09:25.434Z,100.00
2023-03-22T05:11:52.013Z,100.00
2023-03-22T05:14:18.502Z,100.00
2023-03-22T05:16:45.257Z,100.00
2023-03-22T05:19:14.294Z,100.00
2023-03-22T05:21:44.173Z,100.00
2023-03-22T05:24:11.475Z,100.00
2023-03-22T05:26:42.167Z,100.00
2023-03-22T05:29:11.706Z,100.00
2023-03-22T05:31:38.367Z,100.00
2023-03-22T05:34:04.938Z,100.00
2023-03-22T05:36:31.624Z,100.00
2023-03-22T05:38:58.143Z,100.00
2023-03-22T05:41:24.675Z,100.00
2023-03-22T05:43:51.165Z,100.00
2023-03-22T05:46:17.821Z,100.00
2023-03-22T05:48:44.435Z,100.00
2023-03-22T05:51:17.381Z,100.00
2023-03-22T05:53:45.457Z,100.00
2023-03-22T05:56:12.455Z,100.00
2023-03-22T05:58:39.759Z,100.00
2023-03-22T06:01:08.590Z,100.00
2023-03-22T06:03:35.484Z,100.00
2023-03-22T06:06:02.216Z,100.00
2023-03-22T06:08:29.049Z,100.00
2023-03-22T06:10:55.554Z,100.00
2023-03-22T06:13:22.174Z,100.00
2023-03-22T06:15:48.648Z,100.00
2023-03-22T06:18:15.483Z,100.00
2023-03-22T06:20:42.517Z,100.00
2023-03-22T06:23:09.082Z,100.00
2023-03-22T06:25:38.355Z,100.00
2023-03-22T06:28:07.500Z,100.00
2023-03-22T06:30:35.221Z,100.00
2023-03-22T06:33:05.384Z,100.00
2023-03-22T06:35:35.361Z,100.00
2023-03-22T06:38:02.048Z,100.00
2023-03-22T06:40:28.546Z,100.00
2023-03-22T06:42:55.027Z,100.00
2023-03-22T06:45:24.347Z,100.00
2023-03-22T06:47:50.993Z,100.00
2023-03-22T06:50:17.546Z,100.00
2023-03-22T06:52:44.070Z,100.00
2023-03-22T06:55:10.607Z,100.00
2023-03-22T06:57:37.125Z,100.00
2023-03-22T07:00:05.380Z,100.00
2023-03-22T07:02:31.940Z,100.00
2023-03-22T07:04:58.412Z,100.00
2023-03-22T07:07:24.878Z,100.00
2023-03-22T07:09:52.814Z,100.00
2023-03-22T07:12:19.258Z,100.00
2023-03-22T07:14:46.104Z,100.00
2023-03-22T07:17:14.091Z,100.00
2023-03-22T07:19:42.671Z,100.00
2023-03-22T07:22:09.408Z,100.00
2023-03-22T07:24:40.381Z,100.00
2023-03-22T07:27:11.184Z,100.00
2023-03-22T07:29:37.747Z,100.00
2023-03-22T07:32:04.476Z,100.00
2023-03-22T07:34:31.246Z,100.00
2023-03-22T07:36:57.771Z,100.00
2023-03-22T07:39:28.916Z,100.00
2023-03-22T07:41:56.003Z,100.00
2023-03-22T07:44:22.952Z,100.00
2023-03-22T07:46:51.670Z,100.00
2023-03-22T07:49:18.813Z,100.00
2023-03-22T07:51:47.982Z,100.00
2023-03-22T07:54:30.563Z,100.00
2023-03-22T07:56:59.358Z,100.00
2023-03-22T07:59:25.936Z,100.00
2023-03-22T08:01:52.553Z,100.00
2023-03-22T08:04:20.931Z,100.00
2023-03-22T08:06:47.565Z,100.00
2023-03-22T08:09:14.073Z,100.00
2023-03-22T08:11:40.572Z,100.00
2023-03-22T08:14:07.057Z,100.00
2023-03-22T08:16:33.852Z,100.00
2023-03-22T08:19:00.728Z,99.97
2023-03-22T08:21:27.493Z,99.24
2023-03-22T08:23:54.384Z,99.50
2023-03-22T08:26:22.144Z,99.18
2023-03-22T08:28:48.774Z,98.83
2023-03-22T08:31:17.351Z,98.88
2023-03-22T08:33:44.853Z,98.77
2023-03-22T08:36:14.478Z,98.92
2023-03-22T08:38:42.444Z,98.26
2023-03-22T08:41:09.132Z,97.55
2023-03-22T08:43:35.594Z,96.79
2023-03-22T08:46:05.245Z,96.25
2023-03-22T08:48:31.865Z,95.88
2023-03-22T08:50:58.516Z,95.80
2023-03-22T08:53:25.122Z,95.22
2023-03-22T08:55:51.647Z,95.94
2023-03-22T08:58:19.983Z,95.72
2023-03-22T09:00:49.449Z,95.47
2023-03-22T09:03:17.214Z,94.81
2023-03-22T09:05:43.919Z,94.33
2023-03-22T09:08:18.547Z,94.36
2023-03-22T09:10:51.161Z,94.30
2023-03-22T09:13:18.340Z,93.92
2023-03-22T09:15:45.228Z,93.74
2023-03-22T09:18:12.139Z,93.55
2023-03-22T09:20:39.035Z,94.07
2023-03-22T09:23:06.571Z,93.20
2023-03-22T09:25:33.238Z,91.30
2023-03-22T09:27:59.737Z,90.24
2023-03-22T09:30:27.212Z,89.79
2023-03-22T09:32:54.198Z,89.65
2023-03-22T09:35:20.852Z,89.62
2023-03-22T09:37:49.399Z,91.03
2023-03-22T09:40:17.441Z,91.92
2023-03-22T09:42:47.590Z,91.78
2023-03-22T09:45:20.613Z,91.76
2023-03-22T09:47:51.107Z,91.20
2023-03-22T09:50:23.777Z,90.21
2023-03-22T09:52:51.070Z,89.71
2023-03-22T09:55:21.836Z,88.79
2023-03-22T09:58:23.290Z,87.62
2023-03-22T10:01:01.527Z,87.85
2023-03-22T10:03:49.850Z,87.49
2023-03-22T10:06:23.016Z,87.87
2023-03-22T10:09:11.129Z,88.34
2023-03-22T10:11:53.400Z,88.90
2023-03-22T10:14:30.967Z,88.29
2023-03-22T10:17:00.529Z,89.27
2023-03-22T10:19:58.996Z,89.26
2023-03-22T10:22:33.029Z,87.97
2023-03-22T10:25:00.942Z,87.46
2023-03-22T10:27:31.578Z,86.47
2023-03-22T10:30:18.372Z,85.72
2023-03-22T10:32:57.801Z,85.74
2023-03-22T10:35:25.292Z,85.31
2023-03-22T10:37:52.902Z,85.27
2023-03-22T10:40:29.725Z,85.91
2023-03-22T10:43:00.988Z,85.12
2023-03-22T10:45:28.330Z,83.84
2023-03-22T10:48:05.653Z,84.62
2023-03-22T10:50:36.539Z,84.63
2023-03-22T10:53:06.908Z,85.26
2023-03-22T10:55:41.054Z,85.10
2023-03-22T10:58:19.552Z,84.63
2023-03-22T11:00:56.871Z,83.58
2023-03-22T11:03:28.266Z,83.32
2023-03-22T11:06:02.889Z,82.96
2023-03-22T11:08:29.530Z,82.12
2023-03-22T11:11:00.187Z,81.27
2023-03-22T11:13:27.097Z,81.02
2023-03-22T11:16:02.293Z,81.33
2023-03-22T11:18:32.209Z,81.92
2023-03-22T11:21:04.428Z,81.21
2023-03-22T11:23:34.862Z,81.27
2023-03-22T11:26:29.464Z,80.97
2023-03-22T11:29:04.931Z,80.70
2023-03-22T11:31:51.240Z,79.70
2023-03-22T11:34:22.910Z,80.33
2023-03-22T11:36:56.612Z,81.33
2023-03-22T11:39:26.512Z,80.27
2023-03-22T11:41:57.583Z,81.11
2023-03-22T11:44:27.043Z,82.01
2023-03-22T11:47:00.541Z,81.97
2023-03-22T11:49:52.498Z,81.36
2023-03-22T11:52:23.511Z,81.50
2023-03-22T11:54:51.195Z,81.28
2023-03-22T11:57:23.431Z,81.30
2023-03-22T12:00:08.081Z,81.18
2023-03-22T12:02:40.960Z,80.75
2023-03-22T12:05:27.246Z,81.11
2023-03-22T12:08:11.740Z,81.72
2023-03-22T12:10:48.368Z,81.46
2023-03-22T12:13:44.089Z,80.64
2023-03-22T12:16:14.067Z,79.88
2023-03-22T12:18:48.619Z,79.88
2023-03-22T12:21:15.852Z,79.60
2023-03-22T12:23:42.844Z,78.36
2023-03-22T12:26:12.401Z,78.53
2023-03-22T12:28:50.667Z,78.71
2023-03-22T12:31:46.499Z,77.74
2023-03-22T12:34:19.225Z,75.76
2023-03-22T12:36:54.315Z,77.09
2023-03-22T12:39:35.046Z,76.83
2023-03-22T12:42:10.844Z,77.24
2023-03-22T12:44:44.874Z,77.22
2023-03-22T12:47:30.644Z,77.31
2023-03-22T12:50:03.909Z,76.77
2023-03-22T12:52:46.197Z,75.61
2023-03-22T12:55:18.991Z,75.38
2023-03-22T12:57:51.216Z,75.03
2023-03-22T13:00:27.653Z,74.67
2023-03-22T13:03:17.572Z,73.36
2023-03-22T13:05:47.287Z,74.44
2023-03-22T13:08:20.034Z,73.61
2023-03-22T13:10:49.176Z,73.33
2023-03-22T13:13:17.434Z,74.03
2023-03-22T13:15:57.620Z,75.03
2023-03-22T13:18:36.396Z,73.20
2023-03-22T13:21:16.541Z,73.12
2023-03-22T13:24:07.458Z,73.85
2023-03-22T13:26:39.708Z,73.92
2023-03-22T13:29:18.645Z,73.83
2023-03-22T13:31:50.981Z,73.92
2023-03-22T13:34:31.866Z,73.16
2023-03-22T13:37:03.608Z,72.40
2023-03-22T13:39:36.065Z,72.98
2023-03-22T13:42:08.442Z,73.56
2023-03-22T13:44:43.009Z,74.00
2023-03-22T13:47:29.801Z,73.34
2023-03-22T13:50:23.596Z,71.95
2023-03-22T13:53:00.125Z,72.91
2023-03-22T13:55:51.836Z,71.47
2023-03-22T13:58:36.028Z,71.82
2023-03-22T14:01:13.529Z,72.00
2023-03-22T14:03:46.412Z,73.66
2023-03-22T14:06:25.670Z,73.66
2023-03-22T14:09:02.362Z,73.84
2023-03-22T14:11:52.938Z,74.43
2023-03-22T14:14:25.902Z,74.73
2023-03-22T14:16:58.523Z,75.22
2023-03-22T14:19:31.622Z,74.75
